createdAt,value
2022-08-25T00:00:20.361Z,22.36
2022-08-25T00:02:55.589Z,22.38
2022-08-25T00:05:29.389Z,22.38
2022-08-25T00:08:00.387Z,22.39
2022-08-25T00:10:28.626Z,22.36
2022-08-25T00:12:57.870Z,22.33
2022-08-25T00:15:26.470Z,22.26
2022-08-25T00:17:54.326Z,22.24
2022-08-25T00:20:22.796Z,22.22
2022-08-25T00:22:50.681Z,22.20
2022-08-25T00:25:19.227Z,22.16
2022-08-25T00:27:48.613Z,22.15
2022-08-25T00:30:19.515Z,22.14
2022-08-25T00:32:54.995Z,22.16
2022-08-25T00:35:26.741Z,22.15
2022-08-25T00:37:54.653Z,22.12
2022-08-25T00:40:22.956Z,22.06
2022-08-25T00:42:50.798Z,22.02
2022-08-25T00:45:20.157Z,21.97
2022-08-25T00:47:48.540Z,21.93
2022-08-25T00:50:17.578Z,21.86
2022-08-25T00:52:48.881Z,21.82
2022-08-25T00:55:21.379Z,21.79
2022-08-25T00:57:54.748Z,21.75
2022-08-25T01:00:27.497Z,21.72
2022-08-25T01:02:56.711Z,21.65
2022-08-25T01:05:25.049Z,21.63
2022-08-25T01:07:53.959Z,21.62
2022-08-25T01:10:28.761Z,21.62
2022-08-25T01:13:16.517Z,21.62
2022-08-25T01:15:46.679Z,21.60
2022-08-25T01:18:16.027Z,21.57
2022-08-25T01:20:44.101Z,21.58
2022-08-25T01:23:13.319Z,21.52
2022-08-25T01:25:48.910Z,21.45
2022-08-25T01:28:18.476Z,21.35
2022-08-25T01:30:46.372Z,21.25
2022-08-25T01:33:14.454Z,21.15
2022-08-25T01:35:42.388Z,21.07
2022-08-25T01:38:10.845Z,20.98
2022-08-25T01:40:41.156Z,20.94
2022-08-25T01:43:18.413Z,20.91
2022-08-25T01:45:49.022Z,20.85
2022-08-25T01:48:19.487Z,20.84
2022-08-25T01:50:47.438Z,20.83
2022-08-25T01:53:20.395Z,20.80
2022-08-25T01:55:53.098Z,20.81
2022-08-25T01:58:24.397Z,20.83
2022-08-25T02:00:54.361Z,20.75
2022-08-25T02:03:22.700Z,20.68
2022-08-25T02:05:50.556Z,20.68
2022-08-25T02:08:18.434Z,20.69
2022-08-25T02:10:46.568Z,20.69
2022-08-25T02:13:16.526Z,20.65
2022-08-25T02:15:47.351Z,20.65
2022-08-25T02:18:15.275Z,20.59
2022-08-25T02:20:43.104Z,20.61
2022-08-25T02:23:11.259Z,20.59
2022-08-25T02:25:41.115Z,20.58
2022-08-25T02:28:10.501Z,20.62
2022-08-25T02:30:42.516Z,20.59
2022-08-25T02:33:10.799Z,20.60
2022-08-25T02:35:39.222Z,20.65
2022-08-25T02:38:07.808Z,20.67
2022-08-25T02:40:35.956Z,20.71
2022-08-25T02:43:05.773Z,20.70
2022-08-25T02:45:33.728Z,20.71
2022-08-25T02:48:03.169Z,20.71
2022-08-25T02:50:31.317Z,20.71
2022-08-25T02:52:59.138Z,20.70
2022-08-25T02:55:26.983Z,20.68
2022-08-25T02:57:54.826Z,20.67
2022-08-25T03:00:23.234Z,20.64
2022-08-25T03:02:51.118Z,20.60
2022-08-25T03:05:20.347Z,20.57
2022-08-25T03:07:48.147Z,20.56
2022-08-25T03:10:18.853Z,20.55
2022-08-25T03:12:47.981Z,20.52
2022-08-25T03:15:17.786Z,20.46
2022-08-25T03:17:45.950Z,20.47
2022-08-25T03:20:14.376Z,20.44
2022-08-25T03:22:43.623Z,20.37
2022-08-25T03:25:29.333Z,20.36
2022-08-25T03:27:57.216Z,20.33
2022-08-25T03:30:25.826Z,20.33
2022-08-25T03:32:53.999Z,20.34
2022-08-25T03:35:21.973Z,20.38
2022-08-25T03:37:51.695Z,20.38
2022-08-25T03:40:19.562Z,20.38
2022-08-25T03:42:48.050Z,20.37
2022-08-25T03:45:17.779Z,20.31
2022-08-25T03:47:47.953Z,20.26
2022-08-25T03:50:17.491Z,20.19
2022-08-25T03:52:45.581Z,20.16
2022-08-25T03:55:15.618Z,20.10
2022-08-25T03:57:43.435Z,20.09
2022-08-25T04:00:13.284Z,20.13
2022-08-25T04:02:41.680Z,20.15
2022-08-25T04:05:10.865Z,20.15
2022-08-25T04:07:39.235Z,20.14
2022-08-25T04:10:10.045Z,20.12
2022-08-25T04:12:39.521Z,20.07
2022-08-25T04:15:09.175Z,20.04
2022-08-25T04:17:39.741Z,20.01
2022-08-25T04:20:09.454Z,20.00
2022-08-25T04:22:38.706Z,19.99
2022-08-25T04:25:08.540Z,20.02
2022-08-25T04:27:38.913Z,20.00
2022-08-25T04:30:08.147Z,19.99
2022-08-25T04:32:36.701Z,19.99
2022-08-25T04:35:05.478Z,19.96
2022-08-25T04:37:33.514Z,19.93
2022-08-25T04:40:01.392Z,19.92
2022-08-25T04:42:29.422Z,19.87
2022-08-25T04:44:58.791Z,19.80
2022-08-25T04:47:28.113Z,19.72
2022-08-25T04:49:56.874Z,19.70
2022-08-25T04:52:24.698Z,19.70
2022-08-25T04:54:52.693Z,19.73
2022-08-25T04:57:20.557Z,19.78
2022-08-25T04:59:48.553Z,19.80
2022-08-25T05:02:17.759Z,19.83
2022-08-25T05:04:45.580Z,19.84
2022-08-25T05:07:13.402Z,19.86
2022-08-25T05:09:41.320Z,19.88
2022-08-25T05:12:09.771Z,19.88
2022-08-25T05:14:40.075Z,19.88
2022-08-25T05:17:08.809Z,19.87
2022-08-25T05:19:38.322Z,19.88
2022-08-25T05:22:06.760Z,19.90
2022-08-25T05:24:34.747Z,19.90
2022-08-25T05:27:03.899Z,19.96
2022-08-25T05:29:31.913Z,20.04
2022-08-25T05:31:59.702Z,20.09
2022-08-25T05:34:27.518Z,20.17
2022-08-25T05:37:00.344Z,20.23
2022-08-25T05:39:28.228Z,20.29
2022-08-25T05:41:56.007Z,20.35
2022-08-25T05:44:23.848Z,20.41
2022-08-25T05:46:52.480Z,20.46
2022-08-25T05:49:20.346Z,20.56
2022-08-25T05:51:48.342Z,20.63
2022-08-25T05:54:17.581Z,20.73
2022-08-25T05:56:46.387Z,20.82
2022-08-25T05:59:14.401Z,20.93
2022-08-25T06:01:59.741Z,20.99
2022-08-25T06:04:27.461Z,21.07
2022-08-25T06:06:55.686Z,21.17
2022-08-25T06:09:25.467Z,21.26
2022-08-25T06:11:55.190Z,21.33
2022-08-25T06:14:23.821Z,21.42
2022-08-25T06:16:52.204Z,21.48
2022-08-25T06:19:21.168Z,21.57
2022-08-25T06:21:49.383Z,21.63
2022-08-25T06:24:17.132Z,21.72
2022-08-25T06:26:46.515Z,21.81
2022-08-25T06:29:14.961Z,21.87
2022-08-25T06:31:43.667Z,21.94
2022-08-25T06:34:11.896Z,22.00
2022-08-25T06:36:40.064Z,22.03
2022-08-25T06:39:08.200Z,22.12
2022-08-25T06:41:38.880Z,22.17
2022-08-25T06:44:08.102Z,22.24
2022-08-25T06:46:37.096Z,22.34
2022-08-25T06:49:06.309Z,22.39
2022-08-25T06:51:36.044Z,22.44
2022-08-25T06:54:05.217Z,22.50
2022-08-25T06:56:34.093Z,22.58
2022-08-25T06:59:01.971Z,22.67
2022-08-25T07:01:32.170Z,22.79
2022-08-25T07:04:02.345Z,22.88
2022-08-25T07:06:35.320Z,22.96
2022-08-25T07:09:05.274Z,23.03
2022-08-25T07:11:34.365Z,23.12
2022-08-25T07:14:03.328Z,23.22
2022-08-25T07:16:33.397Z,23.32
2022-08-25T07:19:01.800Z,23.43
2022-08-25T07:21:33.676Z,23.54
2022-08-25T07:24:06.573Z,23.64
2022-08-25T07:26:38.607Z,23.78
2022-08-25T07:29:14.020Z,23.90
2022-08-25T07:31:43.267Z,24.07
2022-08-25T07:34:29.236Z,24.21
2022-08-25T07:36:58.094Z,24.35
2022-08-25T07:42:15.218Z,24.85
2022-08-25T07:44:44.030Z,25.07
2022-08-25T07:47:15.833Z,25.27
2022-08-25T07:49:44.143Z,25.47
2022-08-25T07:52:11.897Z,25.68
2022-08-25T07:54:39.776Z,25.87
2022-08-25T07:57:10.023Z,26.09
2022-08-25T07:59:41.726Z,26.30
2022-08-25T08:02:18.677Z,26.52
2022-08-25T08:04:50.183Z,26.75
2022-08-25T08:07:19.920Z,26.95
2022-08-25T08:09:55.809Z,27.22
2022-08-25T08:12:28.630Z,27.39
2022-08-25T08:14:56.367Z,27.53
2022-08-25T08:17:24.146Z,27.64
2022-08-25T08:19:53.318Z,27.83
2022-08-25T08:22:21.345Z,27.98
2022-08-25T08:24:56.133Z,28.07
2022-08-25T08:27:25.092Z,28.33
2022-08-25T08:29:53.689Z,28.56
2022-08-25T08:32:23.828Z,28.74
2022-08-25T08:35:01.050Z,28.92
2022-08-25T08:37:28.930Z,29.10
2022-08-25T08:39:57.982Z,29.26
2022-08-25T08:42:42.970Z,29.37
2022-08-25T08:45:35.518Z,29.51
2022-08-25T08:48:24.019Z,29.60
2022-08-25T08:51:02.806Z,29.70
2022-08-25T08:53:43.825Z,29.83
2022-08-25T08:56:16.771Z,29.96
2022-08-25T08:58:49.916Z,30.11
2022-08-25T09:01:25.664Z,30.23
2022-08-25T09:03:59.795Z,30.42
2022-08-25T09:06:35.049Z,30.61
2022-08-25T09:09:06.931Z,30.81
2022-08-25T09:11:50.212Z,30.96
2022-08-25T09:14:34.089Z,30.97
2022-08-25T09:17:07.170Z,31.13
2022-08-25T09:19:54.134Z,31.26
2022-08-25T09:22:37.850Z,31.43
2022-08-25T09:25:18.792Z,31.51
2022-08-25T09:28:02.211Z,31.49
2022-08-25T09:30:46.349Z,31.38
2022-08-25T09:33:20.894Z,31.51
2022-08-25T09:35:51.698Z,31.60
2022-08-25T09:38:23.818Z,31.72
2022-08-25T09:40:55.749Z,31.95
2022-08-25T09:43:32.362Z,32.03
2022-08-25T09:46:03.457Z,32.15
2022-08-25T09:48:40.791Z,32.30
2022-08-25T09:51:18.159Z,32.51
2022-08-25T09:53:52.869Z,32.71
2022-08-25T09:56:22.965Z,32.90
2022-08-25T09:58:51.902Z,33.02
2022-08-25T10:01:22.589Z,33.17
2022-08-25T10:04:00.867Z,33.23
2022-08-25T10:06:34.534Z,33.28
2022-08-25T10:09:06.986Z,33.42
2022-08-25T10:11:40.519Z,33.47
2022-08-25T10:14:19.327Z,33.52
2022-08-25T10:16:49.479Z,33.64
2022-08-25T10:19:26.506Z,33.74
2022-08-25T10:22:07.457Z,33.83
2022-08-25T10:24:38.330Z,34.01
2022-08-25T10:27:20.458Z,34.01
2022-08-25T10:30:16.097Z,33.89
2022-08-25T10:33:09.660Z,34.03
2022-08-25T10:35:49.125Z,34.29
2022-08-25T10:38:36.154Z,34.44
2022-08-25T10:41:19.871Z,34.62
2022-08-25T10:43:54.351Z,34.82
2022-08-25T10:46:31.684Z,34.83
2022-08-25T10:49:05.747Z,34.92
2022-08-25T10:51:51.149Z,35.03
2022-08-25T10:54:30.332Z,34.79
2022-08-25T10:57:08.965Z,34.29
2022-08-25T10:59:52.222Z,34.18
2022-08-25T11:02:54.075Z,34.40
2022-08-25T11:05:28.214Z,34.34
2022-08-25T11:08:07.232Z,34.11
2022-08-25T11:10:42.814Z,33.97
2022-08-25T11:13:17.974Z,34.09
2022-08-25T11:16:13.720Z,34.20
2022-08-25T11:18:51.174Z,34.22
2022-08-25T11:21:24.465Z,34.15
2022-08-25T11:23:56.515Z,34.24
2022-08-25T11:26:36.649Z,34.32
2022-08-25T11:29:13.470Z,34.38
2022-08-25T11:31:47.321Z,34.75
2022-08-25T11:34:19.541Z,34.87
2022-08-25T11:36:53.100Z,34.82
2022-08-25T11:39:34.678Z,34.90
2022-08-25T11:42:13.850Z,35.11
2022-08-25T11:44:54.987Z,35.20
2022-08-25T11:47:40.819Z,35.17
2022-08-25T11:50:25.939Z,34.90
2022-08-25T11:53:01.277Z,34.87
2022-08-25T11:55:47.159Z,34.75
2022-08-25T11:58:31.716Z,34.68
2022-08-25T12:01:02.843Z,34.73
2022-08-25T12:03:53.386Z,35.00
2022-08-25T12:06:26.122Z,35.19
2022-08-25T12:09:19.286Z,35.46
2022-08-25T12:11:52.316Z,35.79
2022-08-25T12:14:42.430Z,36.06
2022-08-25T12:17:37.791Z,36.21
2022-08-25T12:20:08.240Z,36.33
2022-08-25T12:22:58.575Z,36.51
2022-08-25T12:25:47.416Z,36.66
2022-08-25T12:28:51.626Z,36.68
2022-08-25T12:31:30.181Z,36.74
2022-08-25T12:34:16.807Z,36.65
2022-08-25T12:36:58.996Z,36.75
2022-08-25T12:39:33.205Z,36.85
2022-08-25T12:42:04.475Z,36.95
2022-08-25T12:44:40.297Z,36.96
2022-08-25T12:47:14.818Z,36.97
2022-08-25T12:49:44.071Z,36.98
2022-08-25T12:52:15.982Z,36.93
2022-08-25T12:54:50.111Z,37.01
2022-08-25T12:57:33.570Z,36.99
2022-08-25T13:00:08.185Z,36.97
2022-08-25T13:03:02.804Z,37.06
2022-08-25T13:05:56.744Z,37.04
2022-08-25T13:08:51.704Z,37.07
2022-08-25T13:11:25.718Z,37.06
2022-08-25T13:13:58.687Z,37.04
2022-08-25T13:16:29.986Z,36.91
2022-08-25T13:19:01.573Z,37.02
2022-08-25T13:21:35.144Z,36.93
2022-08-25T13:24:10.478Z,36.88
2022-08-25T13:26:47.192Z,37.03
2022-08-25T13:29:21.455Z,37.14
2022-08-25T13:31:55.363Z,36.97
2022-08-25T13:34:34.231Z,36.91
2022-08-25T13:37:27.627Z,36.93
2022-08-25T13:40:10.220Z,37.19
2022-08-25T13:42:42.400Z,37.14
2022-08-25T13:45:16.528Z,36.72
2022-08-25T13:47:46.139Z,36.51
2022-08-25T13:50:29.883Z,36.44
2022-08-25T13:53:02.763Z,36.34
2022-08-25T13:55:38.408Z,36.31
2022-08-25T13:58:24.895Z,36.26
2022-08-25T14:01:22.850Z,36.17
2022-08-25T14:04:31.997Z,35.99
2022-08-25T14:07:19.269Z,36.02
2022-08-25T14:09:51.671Z,35.79
2022-08-25T14:12:35.683Z,35.44
2022-08-25T14:15:08.176Z,35.33
2022-08-25T14:17:40.318Z,35.38
2022-08-25T14:20:22.034Z,35.35
2022-08-25T14:22:52.654Z,35.25
2022-08-25T14:25:23.134Z,35.12
2022-08-25T14:28:13.687Z,35.11
2022-08-25T14:30:46.388Z,35.05
2022-08-25T14:33:16.204Z,34.88
2022-08-25T14:35:47.551Z,34.68
2022-08-25T14:38:16.272Z,34.44
2022-08-25T14:40:46.576Z,34.32
2022-08-25T14:43:15.883Z,34.31
2022-08-25T14:45:48.281Z,34.24
2022-08-25T14:48:25.423Z,34.22
2022-08-25T14:50:55.725Z,34.05
2022-08-25T14:53:23.510Z,34.03
2022-08-25T14:55:55.699Z,34.09
2022-08-25T14:58:33.944Z,34.34
2022-08-25T15:01:03.513Z,34.59
2022-08-25T15:03:34.174Z,34.81
2022-08-25T15:06:03.342Z,34.92
2022-08-25T15:08:49.873Z,35.03
2022-08-25T15:11:19.184Z,35.26
2022-08-25T15:13:49.627Z,35.42
2022-08-25T15:16:23.531Z,35.38
2022-08-25T15:18:52.182Z,35.39
2022-08-25T15:21:21.542Z,35.30
2022-08-25T15:23:51.051Z,35.08
2022-08-25T15:26:25.999Z,34.81
2022-08-25T15:28:53.903Z,34.68
2022-08-25T15:31:23.562Z,34.70
2022-08-25T15:33:51.620Z,34.59
2022-08-25T15:36:25.071Z,34.54
2022-08-25T15:38:53.545Z,34.50
2022-08-25T15:41:22.441Z,34.44
2022-08-25T15:43:56.671Z,34.45
2022-08-25T15:46:26.200Z,34.40
2022-08-25T15:51:27.014Z,34.25
2022-08-25T15:53:55.533Z,34.09
2022-08-25T15:56:26.641Z,33.87
2022-08-25T15:58:56.448Z,33.85
2022-08-25T16:01:27.145Z,33.85
2022-08-25T16:03:55.304Z,33.76
2022-08-25T16:06:24.257Z,33.72
2022-08-25T16:08:53.715Z,33.67
2022-08-25T16:11:24.503Z,33.58
2022-08-25T16:13:53.373Z,33.52
2022-08-25T16:16:25.188Z,33.47
2022-08-25T16:18:53.350Z,33.41
2022-08-25T16:21:25.501Z,33.22
2022-08-25T16:23:55.213Z,33.14
2022-08-25T16:26:23.248Z,33.10
2022-08-25T16:28:51.470Z,33.02
2022-08-25T16:31:19.761Z,32.97
2022-08-25T16:33:49.918Z,32.95
2022-08-25T16:36:20.793Z,32.89
2022-08-25T16:38:50.422Z,32.86
2022-08-25T16:41:20.568Z,32.79
2022-08-25T16:43:49.016Z,32.74
2022-08-25T16:46:20.340Z,32.71
2022-08-25T16:48:50.467Z,32.66
2022-08-25T16:51:22.609Z,32.58
2022-08-25T16:54:10.948Z,32.52
2022-08-25T16:56:42.198Z,32.45
2022-08-25T16:59:12.270Z,32.34
2022-08-25T17:01:42.918Z,32.31
2022-08-25T17:04:13.489Z,32.26
2022-08-25T17:06:49.387Z,32.20
2022-08-25T17:09:22.908Z,32.15
2022-08-25T17:11:56.947Z,32.11
2022-08-25T17:14:25.610Z,32.07
2022-08-25T17:16:55.049Z,32.02
2022-08-25T17:19:25.922Z,31.94
2022-08-25T17:21:55.115Z,31.89
2022-08-25T17:24:29.374Z,31.82
2022-08-25T17:27:01.361Z,31.76
2022-08-25T17:29:30.045Z,31.74
2022-08-25T17:31:58.473Z,31.71
2022-08-25T17:34:29.538Z,31.66
2022-08-25T17:36:58.537Z,31.64
2022-08-25T17:39:27.639Z,31.58
2022-08-25T17:41:56.205Z,31.55
2022-08-25T17:44:24.032Z,31.50
2022-08-25T17:46:52.007Z,31.45
2022-08-25T17:49:20.135Z,31.39
2022-08-25T17:51:49.268Z,31.36
2022-08-25T17:54:18.288Z,31.29
2022-08-25T17:56:46.112Z,31.23
2022-08-25T17:59:13.996Z,31.16
2022-08-25T18:01:41.842Z,31.10
2022-08-25T18:04:17.330Z,31.03
2022-08-25T18:06:46.530Z,30.95
2022-08-25T18:09:16.053Z,30.90
2022-08-25T18:11:43.886Z,30.86
2022-08-25T18:14:12.631Z,30.82
2022-08-25T18:16:40.827Z,30.74
2022-08-25T18:19:10.772Z,30.68
2022-08-25T18:21:39.320Z,30.59
2022-08-25T18:24:07.993Z,30.51
2022-08-25T18:26:37.445Z,30.39
2022-08-25T18:29:05.607Z,30.28
2022-08-25T18:31:33.454Z,30.18
2022-08-25T18:34:02.230Z,30.09
2022-08-25T18:36:30.088Z,29.99
2022-08-25T18:39:15.480Z,29.95
2022-08-25T18:41:45.789Z,29.84
2022-08-25T18:44:15.565Z,29.77
2022-08-25T18:46:43.681Z,29.67
2022-08-25T18:49:15.859Z,29.54
2022-08-25T18:51:44.684Z,29.45
2022-08-25T18:54:22.858Z,29.37
2022-08-25T18:56:53.403Z,29.27
2022-08-25T18:59:23.613Z,29.19
2022-08-25T19:01:52.891Z,29.10
2022-08-25T19:04:20.871Z,28.98
2022-08-25T19:06:56.271Z,28.90
2022-08-25T19:09:24.079Z,28.80
2022-08-25T19:11:54.688Z,28.72
2022-08-25T19:14:23.240Z,28.67
2022-08-25T19:16:54.706Z,28.62
2022-08-25T19:19:23.851Z,28.55
2022-08-25T19:21:52.091Z,28.47
2022-08-25T19:24:19.988Z,28.43
2022-08-25T19:26:50.467Z,28.38
2022-08-25T19:29:23.720Z,28.29
2022-08-25T19:31:53.261Z,28.21
2022-08-25T19:34:28.009Z,28.11
2022-08-25T19:37:00.223Z,27.99
2022-08-25T19:39:30.594Z,27.93
2022-08-25T19:41:59.023Z,27.88
2022-08-25T19:44:29.617Z,27.77
2022-08-25T19:46:58.047Z,27.70
2022-08-25T19:49:31.569Z,27.63
2022-08-25T19:52:00.294Z,27.56
2022-08-25T19:54:30.875Z,27.50
2022-08-25T19:56:59.282Z,27.46
2022-08-25T19:59:40.825Z,27.44
2022-08-25T20:02:15.319Z,27.41
2022-08-25T20:04:49.294Z,27.39
2022-08-25T20:07:19.082Z,27.35
2022-08-25T20:09:47.286Z,27.31
2022-08-25T20:14:50.922Z,27.21
2022-08-25T20:17:24.305Z,27.16
2022-08-25T20:19:55.447Z,27.12
2022-08-25T20:22:26.327Z,27.08
2022-08-25T20:24:56.240Z,27.01
2022-08-25T20:27:32.220Z,26.95
2022-08-25T20:30:03.014Z,26.92
2022-08-25T20:32:32.521Z,26.85
2022-08-25T20:35:00.558Z,26.81
2022-08-25T20:37:28.583Z,26.79
2022-08-25T20:39:56.460Z,26.75
2022-08-25T20:42:25.019Z,26.72
2022-08-25T20:44:53.587Z,26.67
2022-08-25T20:47:22.794Z,26.62
2022-08-25T20:49:50.609Z,26.60
2022-08-25T20:52:19.662Z,26.55
2022-08-25T20:54:50.360Z,26.53
2022-08-25T20:57:19.383Z,26.48
2022-08-25T20:59:54.725Z,26.47
2022-08-25T21:02:24.843Z,26.41
2022-08-25T21:04:53.516Z,26.35
2022-08-25T21:07:23.680Z,26.31
2022-08-25T21:09:51.936Z,26.26
2022-08-25T21:12:20.138Z,26.19
2022-08-25T21:14:48.213Z,26.15
2022-08-25T21:17:19.367Z,26.09
2022-08-25T21:22:21.527Z,26.00
2022-08-25T21:24:51.439Z,25.97
2022-08-25T21:27:19.743Z,25.93
2022-08-25T21:29:54.450Z,25.90
2022-08-25T21:32:23.321Z,25.87
2022-08-25T21:34:54.604Z,25.80
2022-08-25T21:37:23.059Z,25.77
2022-08-25T21:39:51.295Z,25.74
2022-08-25T21:42:19.505Z,25.71
2022-08-25T21:44:47.446Z,25.67
2022-08-25T21:47:15.854Z,25.63
2022-08-25T21:49:49.419Z,25.62
2022-08-25T21:52:18.716Z,25.54
2022-08-25T21:54:46.536Z,25.49
2022-08-25T21:57:14.615Z,25.44
2022-08-25T21:59:43.512Z,25.36
2022-08-25T22:02:13.779Z,25.32
2022-08-25T22:04:42.149Z,25.31
2022-08-25T22:07:11.669Z,25.31
2022-08-25T22:09:41.547Z,25.32
2022-08-25T22:12:10.393Z,25.32
2022-08-25T22:14:39.360Z,25.29
2022-08-25T22:17:12.265Z,25.28
2022-08-25T22:19:45.514Z,25.26
2022-08-25T22:22:13.419Z,25.18
2022-08-25T22:24:43.703Z,25.11
2022-08-25T22:27:15.814Z,25.01
2022-08-25T22:29:45.177Z,24.99
2022-08-25T22:32:13.562Z,24.95
2022-08-25T22:34:43.676Z,24.91
2022-08-25T22:37:11.973Z,24.88
2022-08-25T22:39:40.429Z,24.86
2022-08-25T22:42:09.859Z,24.88
2022-08-25T22:44:39.213Z,24.88
2022-08-25T22:47:09.323Z,24.91
2022-08-25T22:49:40.174Z,24.90
2022-08-25T22:52:09.248Z,24.85
2022-08-25T22:54:39.447Z,24.81
2022-08-25T22:57:07.604Z,24.79
2022-08-25T22:59:36.778Z,24.75
2022-08-25T23:02:04.815Z,24.71
2022-08-25T23:04:32.703Z,24.67
2022-08-25T23:07:00.513Z,24.63
2022-08-25T23:09:28.444Z,24.59
2022-08-25T23:11:56.413Z,24.60
2022-08-25T23:14:26.177Z,24.58
2022-08-25T23:16:56.507Z,24.55
2022-08-25T23:19:24.522Z,24.52
2022-08-25T23:22:10.573Z,24.48
2022-08-25T23:24:42.681Z,24.43
2022-08-25T23:27:11.473Z,24.43
2022-08-25T23:29:41.152Z,24.42
2022-08-25T23:32:14.069Z,24.40
2022-08-25T23:34:43.872Z,24.36
2022-08-25T23:37:16.170Z,24.34
2022-08-25T23:39:49.544Z,24.32
2022-08-25T23:42:18.338Z,24.29
2022-08-25T23:44:46.214Z,24.27
2022-08-25T23:47:15.382Z,24.24
2022-08-25T23:49:43.232Z,24.23
2022-08-25T23:52:11.073Z,24.17
2022-08-25T23:54:39.329Z,24.10
2022-08-25T23:57:07.698Z,24.05
2022-08-25T23:59:37.408Z,24.02
